Time;durP1;ratioP1;P1;durP2;ratioP2;P2;SDS_P1;SDS_P2;PMS_P1;PMS_P2;Temp;Humidity;BMP_temperature;BMP_pressure;BME280_temperature;BME280_humidity;BME280_pressure;Samples;Min_cycle;Max_cycle;Signal;HPM_P1;HPM_P2
2022/05/19 00:00:25;;;;;;;5.57;1.60;;;13.70;54.40;;;;;;5079112;28;20210;-77
2022/05/19 00:02:52;;;;;;;5.97;1.90;;;13.80;54.00;;;;;;5071009;28;20183;-80
2022/05/19 00:05:19;;;;;;;6.60;1.70;;;14.00;53.30;;;;;;5069038;28;20653;-75
2022/05/19 00:07:47;;;;;;;7.83;1.87;;;14.10;53.40;;;;;;5070966;28;20168;-80
2022/05/19 00:10:14;;;;;;;5.33;1.47;;;14.20;54.00;;;;;;5065522;28;20184;-76
2022/05/19 00:12:42;;;;;;;5.03;1.57;;;14.30;54.80;;;;;;5076161;28;20170;-77
2022/05/19 00:15:11;;;;;;;5.60;1.57;;;14.10;54.10;;;;;;5054265;28;20164;-79
2022/05/19 00:17:39;;;;;;;8.07;1.93;;;14.00;54.70;;;;;;5057739;28;20184;-77
2022/05/19 00:20:07;;;;;;;3.73;1.43;;;13.90;53.80;;;;;;5093136;28;20229;-84
2022/05/19 00:22:34;;;;;;;5.53;1.50;;;13.90;54.40;;;;;;5075594;28;20272;-77
2022/05/19 00:25:02;;;;;;;3.20;1.60;;;13.80;54.70;;;;;;5073487;28;20183;-81
2022/05/19 00:27:29;;;;;;;3.80;1.63;;;13.90;54.70;;;;;;5074213;28;20172;-74
2022/05/19 00:29:56;;;;;;;4.50;1.50;;;13.90;55.30;;;;;;5074419;28;20730;-81
2022/05/19 00:32:24;;;;;;;8.73;1.63;;;14.00;54.80;;;;;;5075298;28;20194;-82
2022/05/19 00:34:51;;;;;;;4.80;1.50;;;14.20;55.10;;;;;;5072423;28;20586;-80
2022/05/19 00:37:18;;;;;;;8.13;1.60;;;14.30;54.50;;;;;;5072245;28;20177;-77
2022/05/19 00:39:46;;;;;;;2.70;1.40;;;14.70;54.50;;;;;;5076222;28;20206;-80
2022/05/19 00:45:04;;;;;;;4.37;1.30;;;15.00;53.70;;;;;;5081519;28;20201;-76
2022/05/19 00:47:43;;;;;;;4.47;1.67;;;15.30;52.80;;;;;;5067417;28;20188;-74
2022/05/19 00:50:31;;;;;;;5.93;1.47;;;15.20;50.60;;;;;;5082943;28;20269;-79
2022/05/19 00:53:27;;;;;;;1.97;1.20;;;15.10;50.30;;;;;;5067035;28;20743;-76
2022/05/19 00:55:56;;;;;;;4.73;1.37;;;15.20;50.90;;;;;;5073543;28;20202;-81
2022/05/19 00:58:44;;;;;;;4.33;1.30;;;15.40;50.10;;;;;;5091131;28;20217;-79
2022/05/19 01:01:13;;;;;;;6.70;1.47;;;15.50;49.80;;;;;;5085289;28;20262;-76
2022/05/19 01:03:50;;;;;;;4.97;1.70;;;15.70;49.40;;;;;;5072202;28;20193;-79
2022/05/19 01:06:19;;;;;;;3.00;1.30;;;15.90;48.60;;;;;;5078578;28;20177;-78
2022/05/19 01:09:08;;;;;;;4.93;1.30;;;16.20;48.50;;;;;;5076900;28;20666;-78
2022/05/19 01:11:38;;;;;;;5.13;1.50;;;16.30;47.20;;;;;;5063281;28;20538;-76
2022/05/19 01:14:06;;;;;;;3.53;1.73;;;16.50;47.50;;;;;;5074036;28;20228;-75
2022/05/19 01:16:34;;;;;;;4.40;1.20;;;16.70;46.10;;;;;;5079019;28;20707;-76
2022/05/19 01:19:05;;;;;;;3.37;1.03;;;16.80;44.80;;;;;;5068265;28;20649;-78
2022/05/19 01:21:33;;;;;;;3.73;1.17;;;16.80;44.70;;;;;;5066675;28;20186;-77
2022/05/19 01:24:21;;;;;;;4.37;1.00;;;16.70;44.60;;;;;;5059233;28;20221;-79
2022/05/19 01:26:57;;;;;;;3.20;1.10;;;16.60;45.10;;;;;;5092613;28;20178;-78
2022/05/19 01:29:27;;;;;;;2.10;1.10;;;16.70;45.40;;;;;;5072825;28;20546;-77
2022/05/19 01:32:00;;;;;;;3.37;1.13;;;17.00;45.10;;;;;;5069168;28;20282;-74
2022/05/19 01:34:32;;;;;;;1.57;0.97;;;17.10;44.40;;;;;;5090899;28;20179;-76
2022/05/19 01:37:00;;;;;;;3.23;1.43;;;17.10;44.50;;;;;;5077398;28;20262;-79
2022/05/19 01:39:30;;;;;;;2.93;1.03;;;17.30;43.70;;;;;;5065635;28;20670;-76
2022/05/19 01:42:19;;;;;;;3.37;1.10;;;17.30;43.70;;;;;;5077049;28;20190;-75
2022/05/19 01:44:54;;;;;;;2.77;1.20;;;17.30;43.30;;;;;;5072741;28;20191;-76
2022/05/19 01:47:33;;;;;;;3.63;1.10;;;17.30;43.60;;;;;;5058470;28;20178;-79
2022/05/19 01:50:34;;;;;;;5.40;1.20;;;17.80;43.70;;;;;;5067901;28;20171;-78
2022/05/19 01:53:09;;;;;;;4.30;1.30;;;18.10;42.80;;;;;;5071987;28;20191;-78
2022/05/19 01:55:52;;;;;;;3.27;1.37;;;18.10;41.80;;;;;;5072390;28;20167;-77
2022/05/19 01:58:43;;;;;;;3.70;1.03;;;17.80;42.70;;;;;;5078642;28;20186;-77
2022/05/19 02:01:11;;;;;;;5.47;1.13;;;18.00;43.30;;;;;;5073135;28;20236;-77
2022/05/19 02:03:44;;;;;;;3.40;1.20;;;18.60;42.60;;;;;;5072148;28;20215;-78
2022/05/19 02:06:25;;;;;;;3.27;1.10;;;18.50;42.20;;;;;;5073288;28;20547;-79
2022/05/19 02:09:00;;;;;;;4.43;1.37;;;18.20;42.60;;;;;;5073740;28;20645;-77
2022/05/19 02:11:42;;;;;;;5.17;1.30;;;18.00;43.50;;;;;;5062092;28;20175;-77
2022/05/19 02:14:15;;;;;;;4.30;0.97;;;18.20;43.30;;;;;;5053187;28;20538;-78
2022/05/19 02:16:43;;;;;;;5.60;1.10;;;18.60;42.30;;;;;;5051369;28;20181;-79
2022/05/19 02:19:15;;;;;;;4.07;1.20;;;18.80;41.50;;;;;;5066560;28;20195;-79
2022/05/19 02:21:44;;;;;;;1.83;1.10;;;18.40;42.60;;;;;;5072399;28;20183;-78
2022/05/19 02:24:16;;;;;;;4.03;1.33;;;18.40;42.90;;;;;;5067142;28;20183;-79
2022/05/19 02:26:43;;;;;;;6.53;1.43;;;18.60;42.50;;;;;;5072636;28;20198;-78
2022/05/19 02:29:22;;;;;;;3.53;1.37;;;18.90;42.20;;;;;;5066902;28;20338;-77
2022/05/19 02:31:50;;;;;;;2.23;0.93;;;19.30;40.20;;;;;;5053181;28;20183;-77
2022/05/19 02:34:18;;;;;;;3.13;1.03;;;19.50;39.90;;;;;;5052666;28;20168;-76
2022/05/19 02:36:47;;;;;;;4.50;1.10;;;19.50;39.60;;;;;;5054911;28;20588;-77
2022/05/19 02:39:14;;;;;;;3.93;1.10;;;20.10;38.50;;;;;;5065348;28;20607;-79
2022/05/19 02:41:41;;;;;;;2.70;0.97;;;20.00;38.70;;;;;;5072679;28;20184;-77
2022/05/19 02:44:09;;;;;;;2.03;1.03;;;20.10;38.60;;;;;;5070970;28;20318;-78
2022/05/19 02:46:36;;;;;;;1.97;0.73;;;20.40;38.30;;;;;;5072210;28;20175;-77
2022/05/19 02:49:04;;;;;;;3.33;1.23;;;20.50;38.10;;;;;;5072256;28;20225;-77
2022/05/19 02:51:31;;;;;;;3.57;0.80;;;20.50;37.40;;;;;;5072644;28;20266;-76
2022/05/19 02:53:59;;;;;;;3.63;1.07;;;20.30;38.10;;;;;;5070156;28;20548;-78
2022/05/19 02:56:26;;;;;;;1.80;0.83;;;20.30;37.90;;;;;;5072311;28;20182;-76
2022/05/19 02:58:54;;;;;;;3.73;0.93;;;20.10;37.20;;;;;;5072038;28;20635;-79
2022/05/19 03:01:21;;;;;;;3.57;0.80;;;20.30;37.60;;;;;;5071470;28;20187;-77
2022/05/19 03:03:48;;;;;;;1.73;0.87;;;20.50;36.50;;;;;;5068920;28;20194;-78
2022/05/19 03:06:16;;;;;;;3.07;0.80;;;20.90;35.70;;;;;;5071615;28;20183;-78
2022/05/19 03:08:43;;;;;;;2.97;0.80;;;20.60;35.70;;;;;;5069921;28;20193;-81
2022/05/19 03:11:38;;;;;;;;;;;;;;;;;;;;;
2022/05/19 03:14:07;;;;;;;3.17;0.90;;;20.80;35.40;;;;;;5062262;28;20213;-84
2022/05/19 03:16:36;;;;;;;2.27;0.80;;;20.90;35.10;;;;;;5071221;28;20182;-83
2022/05/19 03:19:03;;;;;;;2.87;1.23;;;20.80;35.30;;;;;;5067094;28;20202;-81
2022/05/19 03:21:31;;;;;;;4.63;1.20;;;21.10;34.90;;;;;;5070811;28;20187;-78
2022/05/19 03:24:08;;;;;;;2.60;0.93;;;20.50;35.50;;;;;;5073852;28;20240;-79
2022/05/19 03:26:50;;;;;;;7.40;1.20;;;21.00;35.70;;;;;;5074695;28;20262;-81
2022/05/19 03:29:21;;;;;;;4.93;1.20;;;22.00;34.20;;;;;;5071051;28;20942;-81
2022/05/19 03:31:48;;;;;;;2.30;0.90;;;23.00;32.80;;;;;;5072919;28;20740;-81
2022/05/19 03:34:18;;;;;;;3.90;1.20;;;23.50;32.10;;;;;;5074911;28;20266;-76
2022/05/19 03:36:55;;;;;;;1.87;1.00;;;23.20;31.90;;;;;;5074261;28;20642;-78
2022/05/19 03:39:26;;;;;;;1.70;0.90;;;23.00;31.00;;;;;;5072285;28;20225;-82
2022/05/19 03:42:00;;;;;;;5.50;1.20;;;22.80;31.40;;;;;;5078937;28;20676;-74
2022/05/19 03:44:35;;;;;;;3.23;1.30;;;23.20;32.00;;;;;;5076883;28;20202;-80
2022/05/19 03:47:03;;;;;;;4.47;1.10;;;23.10;32.50;;;;;;5073165;28;20186;-76
2022/05/19 03:49:54;;;;;;;5.93;1.00;;;23.30;32.10;;;;;;5072489;28;20203;-81
2022/05/19 03:52:24;;;;;;;3.03;1.17;;;23.90;31.20;;;;;;5073834;28;20296;-81
2022/05/19 03:54:52;;;;;;;1.97;0.97;;;23.70;31.30;;;;;;5074962;28;20179;-82
2022/05/19 03:57:21;;;;;;;1.67;1.00;;;23.30;31.00;;;;;;5068922;28;20187;-79
2022/05/19 03:59:49;;;;;;;2.40;0.90;;;23.60;30.60;;;;;;5072156;28;20220;-76
2022/05/19 04:02:16;;;;;;;3.83;1.07;;;23.90;30.80;;;;;;5074377;28;20671;-74
2022/05/19 04:04:44;;;;;;;2.57;1.00;;;23.50;30.50;;;;;;5074090;28;20187;-79
2022/05/19 04:07:11;;;;;;;4.40;1.00;;;22.90;31.90;;;;;;5074885;28;20190;-81
2022/05/19 04:09:39;;;;;;;3.97;1.03;;;23.10;31.50;;;;;;5074354;28;20561;-76
2022/05/19 04:12:07;;;;;;;4.07;0.80;;;22.60;31.50;;;;;;5068062;28;20186;-75
2022/05/19 04:14:34;;;;;;;1.90;1.00;;;22.80;32.30;;;;;;5074203;28;20191;-77
2022/05/19 04:17:02;;;;;;;2.23;1.10;;;23.30;30.50;;;;;;5074559;28;20191;-75
2022/05/19 04:19:30;;;;;;;3.83;1.30;;;23.80;29.90;;;;;;5068724;28;20245;-74
2022/05/19 04:21:57;;;;;;;3.30;0.80;;;23.40;30.40;;;;;;5069190;28;20185;-76
2022/05/19 04:24:24;;;;;;;3.60;1.00;;;23.70;30.20;;;;;;5066306;28;20535;-76
2022/05/19 04:26:52;;;;;;;6.93;1.50;;;23.80;30.10;;;;;;5063942;28;20194;-75
2022/05/19 04:29:19;;;;;;;3.80;1.13;;;23.60;30.00;;;;;;5065337;28;20183;-77
2022/05/19 04:31:47;;;;;;;1.63;0.70;;;23.10;30.10;;;;;;5067095;28;20183;-76
2022/05/19 04:34:14;;;;;;;2.80;1.00;;;23.30;30.60;;;;;;5069272;28;20282;-77
2022/05/19 04:36:41;;;;;;;2.60;1.10;;;23.30;30.40;;;;;;5068825;28;20586;-76
2022/05/19 04:39:09;;;;;;;3.83;0.90;;;23.80;29.90;;;;;;5065685;28;20207;-76
2022/05/19 04:41:37;;;;;;;4.60;1.17;;;23.80;29.90;;;;;;5068792;28;20191;-76
2022/05/19 04:44:05;;;;;;;2.63;1.00;;;24.30;29.30;;;;;;5072138;28;20219;-77
2022/05/19 04:46:33;;;;;;;3.27;1.00;;;24.00;30.30;;;;;;5072209;28;20217;-77
2022/05/19 04:49:00;;;;;;;1.47;0.90;;;24.10;29.60;;;;;;5072813;28;20551;-77
2022/05/19 04:51:27;;;;;;;3.93;0.90;;;24.30;28.60;;;;;;5073552;28;20183;-75
2022/05/19 04:53:54;;;;;;;5.93;1.00;;;24.10;28.80;;;;;;5073224;28;20551;-76
2022/05/19 04:56:22;;;;;;;5.87;0.90;;;24.40;28.60;;;;;;5072891;28;20183;-77
2022/05/19 04:58:49;;;;;;;3.23;1.10;;;24.50;28.60;;;;;;5072657;28;20263;-76
2022/05/19 05:01:16;;;;;;;3.10;0.70;;;24.30;28.60;;;;;;5072635;28;20187;-77
2022/05/19 05:03:44;;;;;;;2.57;0.87;;;23.70;29.30;;;;;;5071290;28;20187;-76
2022/05/19 05:06:11;;;;;;;2.27;1.00;;;23.40;30.20;;;;;;5071989;28;20183;-78
2022/05/19 05:08:38;;;;;;;3.47;0.80;;;23.30;30.50;;;;;;5071958;28;20187;-77
2022/05/19 05:11:06;;;;;;;2.77;1.00;;;23.00;30.40;;;;;;5062505;28;20194;-76
2022/05/19 05:13:33;;;;;;;3.10;1.07;;;22.80;30.80;;;;;;5065669;28;20183;-76
2022/05/19 05:16:00;;;;;;;4.20;1.10;;;22.80;31.10;;;;;;5072642;28;20535;-76
2022/05/19 05:18:28;;;;;;;2.00;0.80;;;23.50;30.30;;;;;;5073606;28;20244;-77
2022/05/19 05:20:55;;;;;;;1.53;1.33;;;23.80;29.80;;;;;;5053210;28;20190;-77
2022/05/19 05:23:22;;;;;;;3.00;1.30;;;23.80;29.50;;;;;;5071907;28;20543;-76
2022/05/19 05:25:50;;;;;;;3.57;1.00;;;23.80;30.00;;;;;;5073581;28;20602;-76
2022/05/19 05:28:18;;;;;;;3.57;0.90;;;23.00;30.40;;;;;;5067887;28;20262;-76
2022/05/19 05:30:49;;;;;;;1.70;0.70;;;22.70;31.10;;;;;;5073750;28;20186;-76
2022/05/19 05:33:17;;;;;;;1.97;0.80;;;22.80;31.50;;;;;;5073845;28;20229;-76
2022/05/19 05:35:44;;;;;;;4.17;1.00;;;22.30;32.40;;;;;;5073476;28;20195;-77
2022/05/19 05:38:12;;;;;;;7.03;4.53;;;22.50;32.00;;;;;;5073791;28;20175;-76
2022/05/19 05:40:39;;;;;;;5.13;1.00;;;22.30;32.50;;;;;;5073715;28;20219;-76
2022/05/19 05:43:08;;;;;;;3.70;1.17;;;21.60;33.20;;;;;;5073197;28;20211;-76
2022/05/19 05:45:36;;;;;;;5.33;1.10;;;21.30;33.80;;;;;;5074150;28;20183;-76
2022/05/19 05:48:04;;;;;;;3.57;1.30;;;21.60;33.70;;;;;;5073575;28;20175;-75
2022/05/19 05:50:32;;;;;;;5.87;1.37;;;22.10;33.50;;;;;;5069982;28;20187;-75
2022/05/19 05:52:59;;;;;;;3.47;1.20;;;22.50;32.70;;;;;;5067970;28;20179;-76
2022/05/19 05:55:27;;;;;;;4.20;1.07;;;22.70;32.60;;;;;;5073507;28;20278;-76
2022/05/19 05:57:54;;;;;;;2.33;0.83;;;23.00;32.20;;;;;;5072244;28;20224;-77
2022/05/19 06:00:22;;;;;;;2.47;0.80;;;22.30;33.10;;;;;;5075765;28;20225;-78
2022/05/19 06:02:50;;;;;;;2.37;1.00;;;22.80;32.70;;;;;;5087932;28;20220;-76
2022/05/19 06:05:18;;;;;;;3.97;1.00;;;22.80;32.30;;;;;;5071408;28;20183;-76
2022/05/19 06:07:46;;;;;;;1.87;1.07;;;21.80;33.50;;;;;;5070554;28;20650;-75
2022/05/19 06:10:14;;;;;;;2.33;0.93;;;21.00;34.80;;;;;;5091298;28;20178;-74
2022/05/19 06:12:42;;;;;;;3.77;1.07;;;20.00;36.00;;;;;;5091102;28;20182;-73
2022/05/19 06:15:12;;;;;;;12.17;1.23;;;19.40;37.50;;;;;;5070530;28;20183;-74
2022/05/19 06:17:40;;;;;;;2.17;1.30;;;18.80;38.30;;;;;;5071402;28;20219;-74
2022/05/19 06:20:10;;;;;;;4.33;1.20;;;18.60;39.60;;;;;;5070804;28;20218;-74
2022/05/19 06:22:38;;;;;;;4.17;1.23;;;18.50;40.30;;;;;;5071189;28;20653;-77
2022/05/19 06:25:07;;;;;;;2.83;0.90;;;18.30;40.20;;;;;;5071679;28;20673;-74
2022/05/19 06:27:34;;;;;;;3.33;1.00;;;18.10;41.20;;;;;;5066317;28;20228;-75
2022/05/19 06:30:02;;;;;;;3.77;1.10;;;18.00;41.30;;;;;;5072213;28;20519;-74
2022/05/19 06:32:29;;;;;;;4.90;2.07;;;17.80;41.90;;;;;;5072908;28;20167;-77
2022/05/19 06:34:56;;;;;;;2.57;1.60;;;17.70;42.40;;;;;;5072548;28;20181;-76
2022/05/19 06:37:23;;;;;;;9.47;1.40;;;17.60;41.80;;;;;;5075783;28;20171;-77
2022/05/19 06:39:51;;;;;;;2.93;1.20;;;17.50;42.40;;;;;;5092826;28;20221;-76
2022/05/19 06:42:18;;;;;;;4.93;1.27;;;17.40;42.80;;;;;;5092886;28;20167;-77
2022/05/19 06:44:45;;;;;;;2.70;1.20;;;17.20;43.80;;;;;;5092437;28;20277;-77
2022/05/19 06:47:14;;;;;;;6.30;1.20;;;17.10;44.20;;;;;;5076992;28;20175;-76
2022/05/19 06:49:47;;;;;;;6.77;1.73;;;16.90;43.50;;;;;;5072681;28;20176;-75
2022/05/19 06:52:18;;;;;;;4.03;1.53;;;16.80;45.10;;;;;;5072801;28;20175;-76
2022/05/19 06:54:48;;;;;;;4.13;1.37;;;16.70;45.00;;;;;;5073365;28;20179;-76
2022/05/19 06:57:15;;;;;;;4.17;1.67;;;16.60;45.20;;;;;;5072417;28;20175;-75
2022/05/19 06:59:43;;;;;;;3.17;1.73;;;16.50;46.00;;;;;;5072575;28;20272;-75
2022/05/19 07:02:11;;;;;;;6.97;1.47;;;16.40;46.30;;;;;;5072766;28;20186;-75
2022/05/19 07:04:39;;;;;;;8.03;2.03;;;16.30;46.30;;;;;;5071514;28;20219;-76
2022/05/19 07:07:07;;;;;;;5.63;2.00;;;16.20;46.80;;;;;;5071144;28;20191;-76
2022/05/19 07:09:36;;;;;;;7.00;2.40;;;16.20;47.60;;;;;;5072822;28;20167;-76
2022/05/19 07:12:04;;;;;;;10.20;2.40;;;16.10;47.90;;;;;;5073622;28;20189;-76
2022/05/19 07:14:32;;;;;;;6.43;2.20;;;16.00;49.20;;;;;;5072661;28;20178;-76
2022/05/19 07:17:00;;;;;;;8.30;2.47;;;15.90;49.10;;;;;;5072684;28;20178;-77
2022/05/19 07:22:19;;;;;;;3.03;1.90;;;15.80;50.30;;;;;;5068703;28;20186;-76
2022/05/19 07:24:48;;;;;;;6.03;2.03;;;15.70;50.00;;;;;;5072372;28;20202;-77
2022/05/19 07:27:15;;;;;;;10.13;2.67;;;15.70;50.60;;;;;;5065568;28;20648;-76
2022/05/19 07:29:43;;;;;;;3.17;2.00;;;15.60;50.20;;;;;;5076978;28;20197;-76
2022/05/19 07:32:10;;;;;;;5.93;2.47;;;15.50;50.60;;;;;;5070470;28;20170;-76
2022/05/19 07:34:40;;;;;;;9.37;2.10;;;15.40;50.80;;;;;;5069634;28;20186;-75
2022/05/19 07:37:07;;;;;;;5.53;1.77;;;15.30;51.00;;;;;;5072525;28;20185;-76
2022/05/19 07:39:35;;;;;;;5.87;1.70;;;15.30;50.80;;;;;;5087055;28;20303;-76
2022/05/19 07:42:02;;;;;;;4.07;1.60;;;15.30;50.90;;;;;;5087856;28;20322;-75
2022/05/19 07:44:31;;;;;;;4.37;1.80;;;15.20;51.50;;;;;;5066286;28;20197;-77
2022/05/19 07:46:58;;;;;;;6.07;2.20;;;15.20;51.20;;;;;;5084770;28;20200;-77
2022/05/19 07:49:26;;;;;;;4.00;1.83;;;15.10;51.80;;;;;;5077087;28;20599;-75
2022/05/19 07:51:53;;;;;;;3.80;2.30;;;15.00;52.20;;;;;;5069710;28;20542;-76
2022/05/19 07:54:24;;;;;;;8.17;2.43;;;15.00;52.20;;;;;;5070887;28;20172;-76
2022/05/19 07:56:51;;;;;;;3.50;2.30;;;14.90;52.10;;;;;;5072740;28;20546;-78
2022/05/19 07:59:19;;;;;;;3.77;2.40;;;14.90;52.50;;;;;;5075367;28;20226;-75
2022/05/19 08:01:48;;;;;;;7.80;2.97;;;14.90;53.30;;;;;;5075182;28;20167;-76
2022/05/19 08:04:15;;;;;;;8.17;2.00;;;14.90;53.30;;;;;;5074557;28;20665;-76
2022/05/19 08:06:43;;;;;;;9.90;2.90;;;14.90;53.40;;;;;;5083152;28;20186;-75
2022/05/19 08:15:34;;;;;;;7.97;2.50;;;14.80;53.80;;;;;;5065404;28;20607;-75
2022/05/19 08:17:53;;;;;;;10.03;2.77;;;14.80;54.20;;;;;;5076089;28;20828;-76
2022/05/19 08:20:20;;;;;;;4.70;2.50;;;14.70;54.80;;;;;;5079138;28;20218;-75
2022/05/19 08:22:47;;;;;;;5.97;2.50;;;14.60;54.80;;;;;;5073747;28;20891;-75
2022/05/19 08:25:15;;;;;;;7.80;2.60;;;14.60;56.10;;;;;;5074897;28;20218;-75
2022/05/19 08:27:44;;;;;;;10.90;2.93;;;14.50;55.60;;;;;;5074747;28;20725;-75
2022/05/19 08:30:13;;;;;;;5.97;2.87;;;14.40;55.90;;;;;;5075102;28;20176;-76
2022/05/19 08:32:42;;;;;;;7.23;2.63;;;14.40;56.30;;;;;;5073324;28;20656;-74
2022/05/19 08:35:10;;;;;;;4.80;2.60;;;14.30;56.40;;;;;;5074656;28;20177;-75
2022/05/19 08:37:37;;;;;;;6.73;2.97;;;14.30;56.40;;;;;;5073717;28;20185;-75
2022/05/19 08:40:05;;;;;;;6.47;2.67;;;14.20;57.20;;;;;;5088696;28;20233;-75
2022/05/19 08:42:37;;;;;;;7.10;3.10;;;14.20;58.00;;;;;;5094927;28;20214;-75
2022/05/19 08:45:11;;;;;;;9.70;3.47;;;14.10;58.20;;;;;;5095219;28;20227;-74
2022/05/19 08:47:39;;;;;;;7.27;2.93;;;14.10;58.20;;;;;;5093691;28;20180;-75
2022/05/19 08:50:46;;;;;;;9.30;3.27;;;14.00;58.20;;;;;;5072922;28;20562;-74
2022/05/19 08:53:13;;;;;;;11.40;3.80;;;14.00;58.70;;;;;;5061766;28;20587;-74
2022/05/19 08:55:46;;;;;;;7.70;4.07;;;14.00;59.50;;;;;;5077809;28;20186;-75
2022/05/19 08:58:19;;;;;;;7.07;3.63;;;13.90;59.90;;;;;;5074543;28;20260;-75
2022/05/19 09:00:54;;;;;;;8.70;3.80;;;13.90;59.60;;;;;;5074765;28;20210;-75
2022/05/19 09:03:25;;;;;;;8.83;4.00;;;13.90;60.30;;;;;;5074958;28;20205;-74
2022/05/19 09:06:18;;;;;;;9.33;4.17;;;13.90;60.40;;;;;;5077405;28;20641;-75
2022/05/19 09:08:46;;;;;;;10.30;4.83;;;13.80;60.80;;;;;;5083808;28;20181;-75
2022/05/19 09:11:19;;;;;;;10.10;4.53;;;13.80;61.50;;;;;;5068162;28;20206;-75
2022/05/19 09:13:53;;;;;;;6.30;4.20;;;13.70;61.80;;;;;;5067339;28;20222;-76
2022/05/19 09:16:27;;;;;;;8.43;4.10;;;13.60;61.80;;;;;;5073157;28;20184;-75
2022/05/19 09:19:33;;;;;;;8.00;4.20;;;13.50;61.90;;;;;;5073521;28;20293;-75
2022/05/19 09:22:20;;;;;;;8.40;3.77;;;13.50;62.70;;;;;;5068938;28;20581;-76
2022/05/19 09:24:50;;;;;;;5.83;2.80;;;13.50;62.30;;;;;;5085443;28;20191;-76
2022/05/19 09:27:19;;;;;;;6.73;2.80;;;13.40;62.10;;;;;;5054245;28;20168;-75
2022/05/19 09:29:55;;;;;;;6.93;2.93;;;13.30;62.10;;;;;;5068167;28;20190;-75
2022/05/19 09:32:29;;;;;;;6.10;3.13;;;13.30;61.80;;;;;;5074203;28;20184;-75
2022/05/19 09:35:23;;;;;;;6.30;3.27;;;13.40;62.00;;;;;;5072395;28;20185;-75
2022/05/19 09:38:13;;;;;;;6.83;3.43;;;13.50;61.30;;;;;;5071207;28;20190;-75
2022/05/19 09:40:43;;;;;;;11.93;3.47;;;13.60;60.60;;;;;;5073918;28;20211;-75
2022/05/19 09:43:26;;;;;;;8.30;3.67;;;13.60;61.10;;;;;;5072303;28;20368;-75
2022/05/19 09:46:14;;;;;;;6.83;3.50;;;13.70;61.00;;;;;;5077527;28;20228;-75
2022/05/19 09:48:56;;;;;;;10.27;4.37;;;13.70;60.90;;;;;;5080790;28;20182;-76
2022/05/19 09:51:30;;;;;;;11.97;4.03;;;13.70;61.30;;;;;;5072188;28;20182;-75
2022/05/19 09:53:59;;;;;;;8.47;4.30;;;13.70;60.60;;;;;;5073582;28;20171;-75
2022/05/19 09:56:37;;;;;;;10.37;4.23;;;13.80;60.40;;;;;;5073043;28;20657;-75
2022/05/19 09:59:13;;;;;;;8.57;4.27;;;13.80;60.20;;;;;;5072746;28;20214;-76
2022/05/19 10:01:45;;;;;;;10.40;5.13;;;13.80;60.20;;;;;;5064831;28;20178;-76
2022/05/19 10:04:42;;;;;;;6.97;4.40;;;13.80;60.30;;;;;;5055410;28;20168;-76
2022/05/19 10:07:24;;;;;;;11.40;3.90;;;13.70;61.00;;;;;;5071800;28;20516;-75
2022/05/19 10:09:57;;;;;;;8.97;3.80;;;13.70;60.70;;;;;;5092224;28;20182;-76
2022/05/19 10:12:42;;;;;;;5.33;3.20;;;13.70;60.80;;;;;;5082865;28;20180;-75
2022/05/19 10:15:15;;;;;;;7.93;3.30;;;13.70;60.50;;;;;;5089382;28;20285;-76
2022/05/19 10:18:01;;;;;;;5.17;2.90;;;13.70;60.10;;;;;;5093656;28;20168;-75
2022/05/19 10:20:32;;;;;;;6.93;3.20;;;13.70;59.70;;;;;;5091350;28;20250;-76
2022/05/19 10:23:36;;;;;;;6.40;3.30;;;13.70;60.00;;;;;;5077679;28;20235;-76
2022/05/19 10:26:23;;;;;;;8.17;3.33;;;13.60;61.10;;;;;;5081469;28;20609;-76
2022/05/19 10:32:14;;;;;;;8.27;3.23;;;13.40;60.40;;;;;;5070994;28;20206;-74
2022/05/19 10:34:59;;;;;;;7.73;2.87;;;13.40;60.50;;;;;;5052630;28;20172;-74
2022/05/19 10:37:29;;;;;;;6.40;3.20;;;13.40;61.00;;;;;;5055920;28;20187;-77
2022/05/19 10:40:03;;;;;;;7.20;3.10;;;13.30;61.00;;;;;;5071755;28;20775;-77
2022/05/19 10:42:39;;;;;;;8.03;2.80;;;13.40;60.80;;;;;;5072876;28;20700;-76
2022/05/19 10:45:26;;;;;;;6.33;2.70;;;13.40;60.50;;;;;;5072606;28;20655;-75
2022/05/19 10:48:06;;;;;;;5.13;2.80;;;13.40;60.20;;;;;;5064261;28;20179;-76
2022/05/19 10:50:36;;;;;;;5.53;2.90;;;13.30;59.90;;;;;;5089327;28;20182;-76
2022/05/19 10:53:06;;;;;;;5.90;3.33;;;13.30;60.60;;;;;;5071917;28;20645;-76
2022/05/19 10:56:06;;;;;;;6.47;3.03;;;13.30;61.50;;;;;;5072582;28;20175;-76
2022/05/19 10:58:43;;;;;;;8.87;3.20;;;13.20;62.80;;;;;;5072610;28;20262;-75
2022/05/19 11:01:37;;;;;;;8.60;3.40;;;13.20;63.00;;;;;;5072325;28;20258;-76
2022/05/19 11:04:28;;;;;;;5.83;3.10;;;13.00;63.80;;;;;;5072753;28;20171;-76
2022/05/19 11:07:22;;;;;;;6.10;3.13;;;13.00;64.70;;;;;;5072631;28;20213;-75
2022/05/19 11:10:24;;;;;;;11.37;6.77;;;12.90;65.30;;;;;;5072936;28;20545;-75
2022/05/19 11:13:03;;;;;;;5.27;3.70;;;12.80;65.90;;;;;;5063132;28;20231;-77
2022/05/19 11:15:54;;;;;;;7.67;3.87;;;12.80;66.00;;;;;;5052789;28;20202;-77
2022/05/19 11:18:40;;;;;;;7.60;4.30;;;12.80;65.40;;;;;;5052645;28;20168;-77
2022/05/19 11:21:15;;;;;;;6.80;3.70;;;12.70;65.90;;;;;;5051153;28;20547;-77
2022/05/19 11:23:54;;;;;;;7.17;3.57;;;12.80;66.00;;;;;;5052474;28;20180;-75
2022/05/19 11:26:34;;;;;;;9.93;3.97;;;12.80;66.10;;;;;;5056428;28;20179;-76
2022/05/19 11:29:22;;;;;;;9.53;4.13;;;12.80;66.80;;;;;;5072572;28;20642;-76
2022/05/19 11:32:12;;;;;;;10.17;4.17;;;13.00;67.20;;;;;;5075383;28;20634;-75
2022/05/19 11:35:07;;;;;;;11.20;4.40;;;13.10;67.60;;;;;;5076649;28;20167;-76
2022/05/19 11:37:48;;;;;;;6.77;4.10;;;13.20;67.00;;;;;;5063423;28;20207;-76
2022/05/19 11:40:35;;;;;;;11.77;4.73;;;13.20;67.20;;;;;;5074436;28;20260;-76
2022/05/19 11:43:11;;;;;;;9.87;4.50;;;13.20;66.50;;;;;;5084939;28;20219;-76
2022/05/19 11:45:52;;;;;;;9.23;4.87;;;13.20;66.60;;;;;;5074772;28;20214;-76
2022/05/19 11:55:12;;;;;;;9.83;4.30;;;12.90;67.60;;;;;;5076690;28;20593;-76
2022/05/19 11:57:44;;;;;;;7.37;4.50;;;12.80;67.80;;;;;;5076501;28;20217;-76
2022/05/19 12:00:18;;;;;;;9.70;4.73;;;12.70;68.20;;;;;;5076716;28;20246;-76
2022/05/19 12:02:49;;;;;;;11.00;4.93;;;12.70;68.60;;;;;;5075971;28;20171;-77
2022/05/19 12:05:31;;;;;;;6.90;4.07;;;12.60;69.20;;;;;;5076163;28;20177;-77
2022/05/19 12:08:11;;;;;;;9.23;4.57;;;12.60;69.50;;;;;;5074412;28;20732;-77
2022/05/19 12:10:48;;;;;;;8.87;4.33;;;12.60;70.00;;;;;;5075941;28;20254;-77
2022/05/19 12:13:19;;;;;;;9.47;4.10;;;12.70;69.80;;;;;;5076067;28;20171;-77
2022/05/19 12:15:58;;;;;;;10.53;3.93;;;12.80;69.90;;;;;;5075711;28;20164;-77
2022/05/19 12:18:27;;;;;;;12.13;4.53;;;12.80;69.70;;;;;;5087131;28;20602;-77
2022/05/19 12:21:21;;;;;;;8.30;4.53;;;12.90;69.70;;;;;;5095744;28;20266;-77
2022/05/19 12:23:49;;;;;;;10.70;4.90;;;12.90;69.80;;;;;;5055491;28;20176;-77
2022/05/19 12:26:25;;;;;;;11.60;5.40;;;12.90;70.40;;;;;;5055587;28;20255;-75
2022/05/19 12:29:32;;;;;;;18.70;4.97;;;12.80;70.50;;;;;;5063874;28;20712;-77
2022/05/19 12:32:09;;;;;;;8.97;4.93;;;12.80;70.80;;;;;;5065851;28;20266;-77
2022/05/19 12:34:47;;;;;;;10.60;4.47;;;12.60;70.80;;;;;;5080093;28;20531;-77
2022/05/19 12:37:36;;;;;;;12.27;4.80;;;12.50;70.60;;;;;;5095324;28;20649;-77
2022/05/19 12:40:15;;;;;;;11.07;4.83;;;12.50;70.80;;;;;;5079204;28;20211;-76
2022/05/19 12:42:43;;;;;;;10.17;5.17;;;12.30;70.70;;;;;;5074169;28;20585;-77
2022/05/19 12:45:21;;;;;;;10.27;4.33;;;12.30;70.60;;;;;;5075332;28;20167;-77
2022/05/19 12:47:59;;;;;;;10.03;4.20;;;12.20;70.20;;;;;;5074981;28;20163;-77
2022/05/19 12:50:47;;;;;;;9.83;4.60;;;12.10;70.30;;;;;;5075196;28;20524;-77
2022/05/19 12:53:23;;;;;;;8.97;4.40;;;12.20;70.40;;;;;;5075530;28;20224;-76
2022/05/19 12:55:51;;;;;;;9.50;4.10;;;12.20;71.00;;;;;;5074571;28;20174;-77
2022/05/19 12:58:39;;;;;;;9.53;4.17;;;12.30;70.60;;;;;;5074445;28;20258;-77
2022/05/19 13:01:26;;;;;;;14.30;4.57;;;12.20;70.00;;;;;;5073515;28;20211;-77
2022/05/19 13:04:03;;;;;;;9.67;4.60;;;12.30;70.80;;;;;;5069331;28;20194;-77
2022/05/19 13:06:32;;;;;;;10.40;4.83;;;12.30;70.30;;;;;;5066796;28;20171;-76
2022/05/19 13:09:04;;;;;;;9.87;4.00;;;12.30;70.30;;;;;;5078959;28;20233;-75
2022/05/19 13:11:39;;;;;;;12.20;4.30;;;12.20;69.70;;;;;;5074253;28;20172;-77
2022/05/19 13:14:19;;;;;;;8.73;3.97;;;12.10;70.30;;;;;;5060712;28;20195;-76
2022/05/19 13:16:51;;;;;;;7.33;3.70;;;12.20;70.20;;;;;;5054516;28;20658;-77
2022/05/19 13:19:30;;;;;;;6.23;3.43;;;12.10;69.80;;;;;;5058279;28;20213;-77
2022/05/19 13:22:19;;;;;;;4.23;3.43;;;11.90;69.80;;;;;;5073994;28;20183;-78
2022/05/19 13:24:48;;;;;;;12.13;3.50;;;11.80;69.70;;;;;;5074461;28;20199;-77
2022/05/19 13:30:31;;;;;;;9.57;3.60;;;11.80;70.60;;;;;;5073911;28;20272;-77
2022/05/19 13:33:11;;;;;;;6.77;3.43;;;11.80;70.50;;;;;;5072266;28;20528;-77
2022/05/19 13:35:39;;;;;;;10.83;3.30;;;11.70;70.20;;;;;;5071649;28;20548;-76
2022/05/19 13:38:21;;;;;;;11.00;3.80;;;11.70;70.80;;;;;;5073302;28;20647;-76
2022/05/19 13:40:50;;;;;;;10.70;3.60;;;11.70;70.20;;;;;;5072038;28;20715;-78
2022/05/19 13:43:30;;;;;;;8.53;3.63;;;11.70;70.50;;;;;;5065413;28;20319;-77